Springfield, Massachusetts
Current Conditions -  °F | °C
As of 12:58 PM on Saturday 25 Oct 2014 (Local Time) from KCEF Reporting Station
Few Clouds Few Clouds  
Wind Chill: 64°   Ceiling: Unl
Heat Index: 64°   Visibility: 10mi
Dew Point: 41°   Wind: 8mph
Humidity: 43%   Direction: 260°W
Pressure: 29.7"   Gusts: NA
Location:  42.1°N, 72.59°W
Report Text: KCEF 251658Z AUTO 26007KT 10SM FEW200 18/05 A2970 RMK AO2 SLP064 T01760049
Loading
Personal Weather Stations






























Interactive Weather Map
Tropical Storm Tracking
New forecast layout! Learn more

10-Day Weather Forecast

Advertisements
Track Severe Weather on mobile